sensor_id;sensor_type;location;lat;lon;timestamp;pressure;altitude;pressure_sealevel;temperature;humidity
19596;BME280;9945;46.010;8.946;2023-06-14T00:01:18;96782.44;;;20.97;100.00
19596;BME280;9945;46.010;8.946;2023-06-14T00:03:47;96784.91;;;20.99;100.00
19596;BME280;9945;46.010;8.946;2023-06-14T00:06:14;96784.97;;;20.92;100.00
19596;BME280;9945;46.010;8.946;2023-06-14T00:08:42;96788.69;;;20.91;100.00
19596;BME280;9945;46.010;8.946;2023-06-14T00:11:10;96789.84;;;20.95;100.00
19596;BME280;9945;46.010;8.946;2023-06-14T00:13:36;96787.13;;;20.84;100.00
19596;BME280;9945;46.010;8.946;2023-06-14T00:16:04;96776.03;;;20.50;100.00
19596;BME280;9945;46.010;8.946;2023-06-14T00:18:30;96775.47;;;20.66;100.00
19596;BME280;9945;46.010;8.946;2023-06-14T00:20:58;96772.50;;;20.74;100.00
19596;BME280;9945;46.010;8.946;2023-06-14T00:23:24;96773.88;;;20.77;100.00
19596;BME280;9945;46.010;8.946;2023-06-14T00:25:53;96767.53;;;20.78;100.00
19596;BME280;9945;46.010;8.946;2023-06-14T00:28:20;96765.84;;;20.84;100.00
19596;BME280;9945;46.010;8.946;2023-06-14T00:30:46;96769.69;;;20.69;100.00
19596;BME280;9945;46.010;8.946;2023-06-14T00:33:14;96769.53;;;20.64;100.00
19596;BME280;9945;46.010;8.946;2023-06-14T00:35:40;96763.25;;;20.59;100.00
19596;BME280;9945;46.010;8.946;2023-06-14T00:38:07;96766.47;;;20.24;100.00
19596;BME280;9945;46.010;8.946;2023-06-14T00:40:34;96756.97;;;20.53;100.00
19596;BME280;9945;46.010;8.946;2023-06-14T00:43:02;96760.00;;;20.57;100.00
19596;BME280;9945;46.010;8.946;2023-06-14T00:45:29;96759.19;;;20.74;100.00
19596;BME280;9945;46.010;8.946;2023-06-14T00:48:01;96753.13;;;20.67;100.00
19596;BME280;9945;46.010;8.946;2023-06-14T00:50:29;96757.91;;;20.77;100.00
19596;BME280;9945;46.010;8.946;2023-06-14T00:52:57;96755.25;;;20.77;100.00
19596;BME280;9945;46.010;8.946;2023-06-14T00:55:25;96749.59;;;20.73;100.00
19596;BME280;9945;46.010;8.946;2023-06-14T00:57:53;96748.31;;;20.76;100.00
19596;BME280;9945;46.010;8.946;2023-06-14T01:00:22;96750.25;;;20.69;100.00
19596;BME280;9945;46.010;8.946;2023-06-14T01:02:49;96748.78;;;20.73;100.00
19596;BME280;9945;46.010;8.946;2023-06-14T01:05:16;96757.25;;;20.82;100.00
19596;BME280;9945;46.010;8.946;2023-06-14T01:07:54;96745.34;;;20.84;100.00
19596;BME280;9945;46.010;8.946;2023-06-14T01:10:31;96748.59;;;20.68;100.00
19596;BME280;9945;46.010;8.946;2023-06-14T01:13:07;96753.38;;;20.66;100.00
19596;BME280;9945;46.010;8.946;2023-06-14T01:15:39;96757.56;;;20.73;100.00
19596;BME280;9945;46.010;8.946;2023-06-14T01:18:07;96753.63;;;20.76;100.00
19596;BME280;9945;46.010;8.946;2023-06-14T01:20:43;96758.00;;;20.89;100.00
19596;BME280;9945;46.010;8.946;2023-06-14T01:23:11;96756.88;;;20.96;100.00
19596;BME280;9945;46.010;8.946;2023-06-14T01:25:38;96754.41;;;20.95;100.00
19596;BME280;9945;46.010;8.946;2023-06-14T01:28:06;96766.09;;;20.94;100.00
19596;BME280;9945;46.010;8.946;2023-06-14T01:30:36;96762.50;;;20.88;100.00
19596;BME280;9945;46.010;8.946;2023-06-14T01:33:04;96761.84;;;20.74;100.00
19596;BME280;9945;46.010;8.946;2023-06-14T01:35:31;96761.19;;;20.61;100.00
19596;BME280;9945;46.010;8.946;2023-06-14T01:37:59;96772.28;;;20.58;100.00
19596;BME280;9945;46.010;8.946;2023-06-14T01:40:28;96775.03;;;20.26;100.00
19596;BME280;9945;46.010;8.946;2023-06-14T01:42:55;96767.41;;;20.55;100.00
19596;BME280;9945;46.010;8.946;2023-06-14T01:45:23;96763.19;;;20.65;100.00
19596;BME280;9945;46.010;8.946;2023-06-14T01:47:50;96759.78;;;20.40;100.00
19596;BME280;9945;46.010;8.946;2023-06-14T01:50:18;96767.19;;;20.56;100.00
19596;BME280;9945;46.010;8.946;2023-06-14T01:52:45;96767.91;;;20.63;100.00
19596;BME280;9945;46.010;8.946;2023-06-14T01:55:12;96763.19;;;20.65;100.00
19596;BME280;9945;46.010;8.946;2023-06-14T01:57:40;96764.28;;;20.76;100.00
19596;BME280;9945;46.010;8.946;2023-06-14T02:00:08;96766.19;;;20.87;100.00
19596;BME280;9945;46.010;8.946;2023-06-14T02:02:38;96770.34;;;20.83;100.00
19596;BME280;9945;46.010;8.946;2023-06-14T02:05:05;96772.41;;;20.81;100.00
19596;BME280;9945;46.010;8.946;2023-06-14T02:07:33;96772.63;;;20.80;100.00
19596;BME280;9945;46.010;8.946;2023-06-14T02:10:00;96775.06;;;20.81;100.00
19596;BME280;9945;46.010;8.946;2023-06-14T02:12:26;96771.47;;;20.75;100.00
19596;BME280;9945;46.010;8.946;2023-06-14T02:14:54;96769.59;;;20.76;100.00
19596;BME280;9945;46.010;8.946;2023-06-14T02:17:22;96769.75;;;20.81;100.00
19596;BME280;9945;46.010;8.946;2023-06-14T02:19:49;96777.75;;;20.81;100.00
19596;BME280;9945;46.010;8.946;2023-06-14T02:22:16;96774.84;;;20.83;100.00
19596;BME280;9945;46.010;8.946;2023-06-14T02:24:43;96771.72;;;20.86;100.00
19596;BME280;9945;46.010;8.946;2023-06-14T02:27:10;96765.84;;;20.84;100.00
19596;BME280;9945;46.010;8.946;2023-06-14T02:29:37;96766.81;;;20.71;100.00
19596;BME280;9945;46.010;8.946;2023-06-14T02:32:06;96764.34;;;20.69;100.00
19596;BME280;9945;46.010;8.946;2023-06-14T02:34:33;96767.19;;;20.74;100.00
19596;BME280;9945;46.010;8.946;2023-06-14T02:37:00;96759.09;;;20.81;100.00
19596;BME280;9945;46.010;8.946;2023-06-14T02:39:28;96765.47;;;20.80;100.00
19596;BME280;9945;46.010;8.946;2023-06-14T02:41:55;96763.50;;;20.75;100.00
19596;BME280;9945;46.010;8.946;2023-06-14T02:44:24;96761.59;;;20.76;100.00
19596;BME280;9945;46.010;8.946;2023-06-14T02:46:52;96756.25;;;20.64;100.00
19596;BME280;9945;46.010;8.946;2023-06-14T02:49:20;96750.09;;;20.82;100.00
19596;BME280;9945;46.010;8.946;2023-06-14T02:51:47;96758.31;;;20.62;100.00
19596;BME280;9945;46.010;8.946;2023-06-14T02:54:14;96755.00;;;20.67;100.00
19596;BME280;9945;46.010;8.946;2023-06-14T02:56:41;96756.63;;;20.50;100.00
19596;BME280;9945;46.010;8.946;2023-06-14T02:59:08;96753.50;;;20.34;100.00
19596;BME280;9945;46.010;8.946;2023-06-14T03:01:35;96748.19;;;20.53;100.00
19596;BME280;9945;46.010;8.946;2023-06-14T03:04:06;96741.97;;;20.59;100.00
19596;BME280;9945;46.010;8.946;2023-06-14T03:06:35;96745.94;;;20.68;100.00
19596;BME280;9945;46.010;8.946;2023-06-14T03:09:02;96736.50;;;20.72;100.00
19596;BME280;9945;46.010;8.946;2023-06-14T03:11:31;96737.53;;;20.71;100.00
19596;BME280;9945;46.010;8.946;2023-06-14T03:13:58;96734.06;;;20.70;100.00
19596;BME280;9945;46.010;8.946;2023-06-14T03:16:25;96740.41;;;20.69;100.00
19596;BME280;9945;46.010;8.946;2023-06-14T03:18:54;96739.47;;;20.64;100.00
19596;BME280;9945;46.010;8.946;2023-06-14T03:21:21;96734.28;;;20.69;100.00
19596;BME280;9945;46.010;8.946;2023-06-14T03:23:49;96732.00;;;20.54;100.00
19596;BME280;9945;46.010;8.946;2023-06-14T03:26:16;96736.22;;;20.62;100.00
19596;BME280;9945;46.010;8.946;2023-06-14T03:28:44;96733.31;;;20.63;100.00
19596;BME280;9945;46.010;8.946;2023-06-14T03:31:11;96731.69;;;20.62;100.00
19596;BME280;9945;46.010;8.946;2023-06-14T03:33:38;96730.25;;;20.48;100.00
19596;BME280;9945;46.010;8.946;2023-06-14T03:36:05;96733.41;;;20.57;100.00
19596;BME280;9945;46.010;8.946;2023-06-14T03:38:33;96726.75;;;20.66;100.00
19596;BME280;9945;46.010;8.946;2023-06-14T03:41:01;96725.56;;;20.62;100.00
19596;BME280;9945;46.010;8.946;2023-06-14T03:43:28;96730.16;;;20.36;100.00
19596;BME280;9945;46.010;8.946;2023-06-14T03:45:55;96726.31;;;20.51;100.00
19596;BME280;9945;46.010;8.946;2023-06-14T03:48:22;96726.41;;;20.19;100.00
19596;BME280;9945;46.010;8.946;2023-06-14T03:50:49;96729.50;;;20.16;100.00
19596;BME280;9945;46.010;8.946;2023-06-14T03:53:16;96722.72;;;20.20;100.00
19596;BME280;9945;46.010;8.946;2023-06-14T03:55:43;96722.19;;;20.36;100.00
19596;BME280;9945;46.010;8.946;2023-06-14T03:58:11;96718.78;;;20.48;100.00
19596;BME280;9945;46.010;8.946;2023-06-14T04:00:38;96723.81;;;20.56;100.00
19596;BME280;9945;46.010;8.946;2023-06-14T04:03:05;96723.13;;;20.60;100.00
19596;BME280;9945;46.010;8.946;2023-06-14T04:05:32;96722.81;;;20.50;100.00
19596;BME280;9945;46.010;8.946;2023-06-14T04:07:59;96722.59;;;20.52;100.00
19596;BME280;9945;46.010;8.946;2023-06-14T04:10:26;96731.44;;;20.27;100.00
19596;BME280;9945;46.010;8.946;2023-06-14T04:12:53;96732.03;;;20.11;100.00
19596;BME280;9945;46.010;8.946;2023-06-14T04:15:21;96736.06;;;19.95;100.00
19596;BME280;9945;46.010;8.946;2023-06-14T04:17:48;96738.53;;;20.15;100.00
19596;BME280;9945;46.010;8.946;2023-06-14T04:20:15;96738.59;;;20.09;100.00
19596;BME280;9945;46.010;8.946;2023-06-14T04:22:42;96739.53;;;19.96;100.00
19596;BME280;9945;46.010;8.946;2023-06-14T04:25:09;96748.31;;;19.96;100.00
19596;BME280;9945;46.010;8.946;2023-06-14T04:27:38;96743.88;;;19.90;100.00
19596;BME280;9945;46.010;8.946;2023-06-14T04:30:06;96747.88;;;19.99;100.00
19596;BME280;9945;46.010;8.946;2023-06-14T04:32:34;96757.19;;;20.09;100.00
19596;BME280;9945;46.010;8.946;2023-06-14T04:35:05;96756.25;;;20.21;100.00
19596;BME280;9945;46.010;8.946;2023-06-14T04:37:33;96757.34;;;20.38;100.00
19596;BME280;9945;46.010;8.946;2023-06-14T04:40:00;96760.59;;;20.41;100.00
19596;BME280;9945;46.010;8.946;2023-06-14T04:42:30;96757.28;;;20.45;100.00
19596;BME280;9945;46.010;8.946;2023-06-14T04:44:57;96761.88;;;20.56;100.00
19596;BME280;9945;46.010;8.946;2023-06-14T04:47:24;96759.63;;;20.53;100.00
19596;BME280;9945;46.010;8.946;2023-06-14T04:49:57;96760.22;;;20.55;100.00
19596;BME280;9945;46.010;8.946;2023-06-14T04:52:26;96761.34;;;20.48;100.00
19596;BME280;9945;46.010;8.946;2023-06-14T04:54:55;96775.25;;;20.50;100.00
19596;BME280;9945;46.010;8.946;2023-06-14T04:57:22;96765.69;;;20.60;100.00
19596;BME280;9945;46.010;8.946;2023-06-14T04:59:51;96768.28;;;20.67;100.00
19596;BME280;9945;46.010;8.946;2023-06-14T05:02:21;96768.13;;;20.62;100.00
19596;BME280;9945;46.010;8.946;2023-06-14T05:04:49;96766.00;;;20.70;100.00
19596;BME280;9945;46.010;8.946;2023-06-14T05:07:17;96762.72;;;20.68;100.00
19596;BME280;9945;46.010;8.946;2023-06-14T05:09:44;96775.69;;;20.83;100.00
19596;BME280;9945;46.010;8.946;2023-06-14T05:12:11;96773.81;;;20.84;100.00
19596;BME280;9945;46.010;8.946;2023-06-14T05:14:38;96773.16;;;20.88;100.00
19596;BME280;9945;46.010;8.946;2023-06-14T05:17:06;96769.28;;;20.84;100.00
19596;BME280;9945;46.010;8.946;2023-06-14T05:19:33;96774.47;;;20.97;100.00
19596;BME280;9945;46.010;8.946;2023-06-14T05:21:59;96776.53;;;20.95;100.00
19596;BME280;9945;46.010;8.946;2023-06-14T05:24:29;96778.28;;;21.01;100.00
19596;BME280;9945;46.010;8.946;2023-06-14T05:26:57;96776.69;;;21.00;100.00
19596;BME280;9945;46.010;8.946;2023-06-14T05:29:24;96778.28;;;21.01;100.00
19596;BME280;9945;46.010;8.946;2023-06-14T05:31:51;96777.84;;;21.04;100.00
19596;BME280;9945;46.010;8.946;2023-06-14T05:34:18;96769.28;;;21.02;100.00
19596;BME280;9945;46.010;8.946;2023-06-14T05:36:45;96780.41;;;20.81;100.00
19596;BME280;9945;46.010;8.946;2023-06-14T05:39:12;96780.72;;;21.03;100.00
19596;BME280;9945;46.010;8.946;2023-06-14T05:41:41;96777.41;;;21.07;100.00
19596;BME280;9945;46.010;8.946;2023-06-14T05:44:08;96781.19;;;21.00;100.00
19596;BME280;9945;46.010;8.946;2023-06-14T05:46:35;96774.59;;;21.02;100.00
19596;BME280;9945;46.010;8.946;2023-06-14T05:49:02;96775.38;;;20.91;100.00
19596;BME280;9945;46.010;8.946;2023-06-14T05:51:29;96784.00;;;21.05;100.00
19596;BME280;9945;46.010;8.946;2023-06-14T05:53:56;96784.72;;;21.12;100.00
19596;BME280;9945;46.010;8.946;2023-06-14T05:56:23;96788.50;;;21.04;100.00
19596;BME280;9945;46.010;8.946;2023-06-14T05:58:52;96789.97;;;21.19;100.00
19596;BME280;9945;46.010;8.946;2023-06-14T06:01:19;96787.59;;;21.29;100.00
19596;BME280;9945;46.010;8.946;2023-06-14T06:03:45;96790.63;;;21.32;100.00
19596;BME280;9945;46.010;8.946;2023-06-14T06:06:13;96795.38;;;21.12;100.00
19596;BME280;9945;46.010;8.946;2023-06-14T06:08:40;96800.88;;;21.17;100.00
19596;BME280;9945;46.010;8.946;2023-06-14T06:11:08;96798.72;;;21.07;100.00
19596;BME280;9945;46.010;8.946;2023-06-14T06:13:35;96794.53;;;20.82;100.00
19596;BME280;9945;46.010;8.946;2023-06-14T06:16:04;96800.19;;;21.03;100.00
19596;BME280;9945;46.010;8.946;2023-06-14T06:18:31;96801.16;;;21.09;100.00
19596;BME280;9945;46.010;8.946;2023-06-14T06:20:58;96799.97;;;21.23;100.00
19596;BME280;9945;46.010;8.946;2023-06-14T06:23:25;96797.63;;;20.97;100.00
19596;BME280;9945;46.010;8.946;2023-06-14T06:25:51;96807.75;;;20.70;100.00
19596;BME280;9945;46.010;8.946;2023-06-14T06:28:18;96798.50;;;20.72;100.00
19596;BME280;9945;46.010;8.946;2023-06-14T06:30:45;96799.59;;;21.01;100.00
19596;BME280;9945;46.010;8.946;2023-06-14T06:33:14;96806.78;;;21.19;100.00
19596;BME280;9945;46.010;8.946;2023-06-14T06:35:40;96804.25;;;21.24;100.00
19596;BME280;9945;46.010;8.946;2023-06-14T06:38:08;96805.63;;;21.27;100.00
19596;BME280;9945;46.010;8.946;2023-06-14T06:40:35;96813.91;;;21.37;100.00
19596;BME280;9945;46.010;8.946;2023-06-14T06:43:02;96815.22;;;21.46;100.00
19596;BME280;9945;46.010;8.946;2023-06-14T06:45:29;96815.22;;;21.46;100.00
19596;BME280;9945;46.010;8.946;2023-06-14T06:47:56;96820.22;;;21.54;100.00
19596;BME280;9945;46.010;8.946;2023-06-14T06:50:24;96813.69;;;21.68;100.00
19596;BME280;9945;46.010;8.946;2023-06-14T06:52:51;96817.13;;;21.57;100.00
19596;BME280;9945;46.010;8.946;2023-06-14T06:55:18;96813.00;;;21.73;100.00
19596;BME280;9945;46.010;8.946;2023-06-14T06:57:45;96819.09;;;21.62;100.00
19596;BME280;9945;46.010;8.946;2023-06-14T07:00:12;96820.03;;;21.26;100.00
19596;BME280;9945;46.010;8.946;2023-06-14T07:02:39;96828.56;;;21.28;100.00
19596;BME280;9945;46.010;8.946;2023-06-14T07:05:06;96822.34;;;21.52;100.00
19596;BME280;9945;46.010;8.946;2023-06-14T07:07:35;96821.22;;;21.71;100.00
19596;BME280;9945;46.010;8.946;2023-06-14T07:10:02;96833.53;;;21.84;100.00
19596;BME280;9945;46.010;8.946;2023-06-14T07:12:30;96828.69;;;21.93;100.00
19596;BME280;9945;46.010;8.946;2023-06-14T07:14:59;96828.69;;;21.93;100.00
19596;BME280;9945;46.010;8.946;2023-06-14T07:17:26;96830.84;;;22.02;100.00
19596;BME280;9945;46.010;8.946;2023-06-14T07:19:52;96836.97;;;22.14;100.00
19596;BME280;9945;46.010;8.946;2023-06-14T07:22:19;96838.72;;;22.20;100.00
19596;BME280;9945;46.010;8.946;2023-06-14T07:24:47;96832.59;;;22.32;100.00
19596;BME280;9945;46.010;8.946;2023-06-14T07:27:15;96841.50;;;22.37;100.00
19596;BME280;9945;46.010;8.946;2023-06-14T07:29:42;96843.72;;;22.40;100.00
19596;BME280;9945;46.010;8.946;2023-06-14T07:32:08;96846.88;;;22.60;100.00
19596;BME280;9945;46.010;8.946;2023-06-14T07:34:35;96849.97;;;22.46;100.00
19596;BME280;9945;46.010;8.946;2023-06-14T07:37:02;96851.41;;;22.60;100.00
19596;BME280;9945;46.010;8.946;2023-06-14T07:39:29;96847.66;;;22.49;100.00
19596;BME280;9945;46.010;8.946;2023-06-14T07:41:57;96852.91;;;22.68;100.00
19596;BME280;9945;46.010;8.946;2023-06-14T07:44:24;96850.25;;;22.79;98.79
19596;BME280;9945;46.010;8.946;2023-06-14T07:46:51;96845.38;;;22.88;95.71
19596;BME280;9945;46.010;8.946;2023-06-14T07:49:18;96853.72;;;22.91;92.68
19596;BME280;9945;46.010;8.946;2023-06-14T07:51:45;96844.66;;;22.92;93.91
19596;BME280;9945;46.010;8.946;2023-06-14T07:54:13;96842.66;;;22.99;93.41
19596;BME280;9945;46.010;8.946;2023-06-14T07:56:41;96844.72;;;23.09;91.83
19596;BME280;9945;46.010;8.946;2023-06-14T07:59:09;96838.69;;;23.14;91.35
19596;BME280;9945;46.010;8.946;2023-06-14T08:01:36;96838.34;;;22.98;91.88
19596;BME280;9945;46.010;8.946;2023-06-14T08:04:05;96845.59;;;22.86;94.67
19596;BME280;9945;46.010;8.946;2023-06-14T08:06:33;96841.25;;;22.97;92.48
19596;BME280;9945;46.010;8.946;2023-06-14T08:08:59;96842.66;;;22.99;89.17
19596;BME280;9945;46.010;8.946;2023-06-14T08:11:27;96841.25;;;22.97;89.46
19596;BME280;9945;46.010;8.946;2023-06-14T08:13:54;96841.53;;;22.84;92.67
19596;BME280;9945;46.010;8.946;2023-06-14T08:16:22;96838.50;;;22.92;92.52
19596;BME280;9945;46.010;8.946;2023-06-14T08:18:49;96837.09;;;22.89;93.48
19596;BME280;9945;46.010;8.946;2023-06-14T08:21:15;96831.59;;;23.08;90.63
19596;BME280;9945;46.010;8.946;2023-06-14T08:23:43;96840.47;;;22.96;92.92
19596;BME280;9945;46.010;8.946;2023-06-14T08:26:10;96838.56;;;23.09;91.79
19596;BME280;9945;46.010;8.946;2023-06-14T08:28:37;96841.53;;;22.84;92.43
19596;BME280;9945;46.010;8.946;2023-06-14T08:31:04;96839.97;;;23.11;89.96
19596;BME280;9945;46.010;8.946;2023-06-14T08:33:32;96837.00;;;23.24;87.03
19596;BME280;9945;46.010;8.946;2023-06-14T08:36:00;96837.69;;;23.31;87.91
19596;BME280;9945;46.010;8.946;2023-06-14T08:38:26;96848.81;;;23.52;81.90
19596;BME280;9945;46.010;8.946;2023-06-14T08:40:57;96846.56;;;23.60;80.23
19596;BME280;9945;46.010;8.946;2023-06-14T08:43:24;96847.47;;;23.66;77.10
19596;BME280;9945;46.010;8.946;2023-06-14T08:45:53;96852.50;;;23.62;78.33
19596;BME280;9945;46.010;8.946;2023-06-14T08:48:26;96846.03;;;23.47;81.39
19596;BME280;9945;46.010;8.946;2023-06-14T08:50:55;96839.19;;;23.39;83.79
19596;BME280;9945;46.010;8.946;2023-06-14T08:53:27;96848.88;;;23.57;84.01
19596;BME280;9945;46.010;8.946;2023-06-14T08:55:58;96845.44;;;23.45;76.99
19596;BME280;9945;46.010;8.946;2023-06-14T08:58:27;96841.97;;;22.92;79.84
19596;BME280;9945;46.010;8.946;2023-06-14T09:00:57;96841.00;;;23.22;82.28
19596;BME280;9945;46.010;8.946;2023-06-14T09:03:24;96851.84;;;22.92;82.60
19596;BME280;9945;46.010;8.946;2023-06-14T09:05:57;96854.97;;;22.89;84.93
19596;BME280;9945;46.010;8.946;2023-06-14T09:08:26;96851.53;;;23.28;79.45
19596;BME280;9945;46.010;8.946;2023-06-14T09:10:56;96850.75;;;23.56;78.56
19596;BME280;9945;46.010;8.946;2023-06-14T09:13:23;96858.22;;;23.54;74.88
19596;BME280;9945;46.010;8.946;2023-06-14T09:15:50;96850.00;;;23.72;80.92
19596;BME280;9945;46.010;8.946;2023-06-14T09:18:17;96850.53;;;24.03;70.23
19596;BME280;9945;46.010;8.946;2023-06-14T09:20:45;96850.72;;;23.68;71.27
19596;BME280;9945;46.010;8.946;2023-06-14T09:23:20;96852.13;;;23.87;71.50
19596;BME280;9945;46.010;8.946;2023-06-14T09:25:47;96842.72;;;23.85;71.19
19596;BME280;9945;46.010;8.946;2023-06-14T09:28:14;96842.78;;;23.73;73.63
19596;BME280;9945;46.010;8.946;2023-06-14T09:30:41;96841.28;;;23.94;71.63
19596;BME280;9945;46.010;8.946;2023-06-14T09:33:08;96842.34;;;24.09;70.89
19596;BME280;9945;46.010;8.946;2023-06-14T09:35:35;96849.94;;;23.84;67.40
19596;BME280;9945;46.010;8.946;2023-06-14T09:38:02;96852.97;;;24.04;67.22
19596;BME280;9945;46.010;8.946;2023-06-14T09:40:33;96852.31;;;23.97;69.25
19596;BME280;9945;46.010;8.946;2023-06-14T09:43:01;96850.88;;;24.06;69.72
19596;BME280;9945;46.010;8.946;2023-06-14T09:45:29;96858.91;;;23.78;70.62
19596;BME280;9945;46.010;8.946;2023-06-14T09:47:57;96853.91;;;23.53;68.20
19596;BME280;9945;46.010;8.946;2023-06-14T09:50:25;96847.06;;;23.74;69.05
19596;BME280;9945;46.010;8.946;2023-06-14T09:52:52;96850.84;;;23.90;70.27
19596;BME280;9945;46.010;8.946;2023-06-14T09:55:26;96852.41;;;23.74;69.12
19596;BME280;9945;46.010;8.946;2023-06-14T09:57:57;96856.44;;;24.05;66.80
19596;BME280;9945;46.010;8.946;2023-06-14T10:00:25;96846.78;;;23.87;65.47
19596;BME280;9945;46.010;8.946;2023-06-14T10:02:54;96847.88;;;24.36;64.53
19596;BME280;9945;46.010;8.946;2023-06-14T10:05:27;96847.28;;;24.51;63.77
19596;BME280;9945;46.010;8.946;2023-06-14T10:07:59;96846.63;;;24.61;63.42
19596;BME280;9945;46.010;8.946;2023-06-14T10:10:27;96851.66;;;24.74;62.10
19596;BME280;9945;46.010;8.946;2023-06-14T10:12:54;96844.72;;;24.39;63.62
19596;BME280;9945;46.010;8.946;2023-06-14T10:15:28;96846.66;;;24.44;61.78
19596;BME280;9945;46.010;8.946;2023-06-14T10:18:01;96846.75;;;24.32;61.95
19596;BME280;9945;46.010;8.946;2023-06-14T10:20:37;96844.06;;;24.16;63.40
19596;BME280;9945;46.010;8.946;2023-06-14T10:23:10;96843.97;;;24.10;63.71
19596;BME280;9945;46.010;8.946;2023-06-14T10:25:38;96835.13;;;24.43;63.12
19596;BME280;9945;46.010;8.946;2023-06-14T10:28:18;96843.94;;;24.77;59.41
19596;BME280;9945;46.010;8.946;2023-06-14T10:31:07;96829.94;;;24.54;61.79
19596;BME280;9945;46.010;8.946;2023-06-14T10:33:36;96831.97;;;24.63;59.51
19596;BME280;9945;46.010;8.946;2023-06-14T10:36:09;96826.94;;;24.88;60.87
19596;BME280;9945;46.010;8.946;2023-06-14T10:38:37;96833.16;;;25.11;61.50
19596;BME280;9945;46.010;8.946;2023-06-14T10:41:05;96828.00;;;24.87;59.15
19596;BME280;9945;46.010;8.946;2023-06-14T10:43:33;96815.34;;;25.00;60.91
19596;BME280;9945;46.010;8.946;2023-06-14T10:46:19;96827.03;;;25.37;59.76
19596;BME280;9945;46.010;8.946;2023-06-14T10:48:48;96821.53;;;25.49;56.86
19596;BME280;9945;46.010;8.946;2023-06-14T10:51:19;96829.44;;;25.60;57.83
19596;BME280;9945;46.010;8.946;2023-06-14T10:53:50;96816.66;;;25.68;58.04
19596;BME280;9945;46.010;8.946;2023-06-14T10:56:26;96815.50;;;25.85;58.12
19596;BME280;9945;46.010;8.946;2023-06-14T10:58:53;96815.53;;;25.90;55.95
19596;BME280;9945;46.010;8.946;2023-06-14T11:01:32;96817.28;;;25.80;54.47
19596;BME280;9945;46.010;8.946;2023-06-14T11:04:07;96817.81;;;25.77;54.93
19596;BME280;9945;46.010;8.946;2023-06-14T11:06:50;96809.16;;;25.70;56.55
19596;BME280;9945;46.010;8.946;2023-06-14T11:09:38;96808.91;;;26.03;57.17
19596;BME280;9945;46.010;8.946;2023-06-14T11:12:12;96802.53;;;26.09;56.07
19596;BME280;9945;46.010;8.946;2023-06-14T11:14:39;96801.38;;;26.00;55.62
19596;BME280;9945;46.010;8.946;2023-06-14T11:17:08;96794.69;;;26.03;55.19
19596;BME280;9945;46.010;8.946;2023-06-14T11:19:35;96798.81;;;25.83;55.14
19596;BME280;9945;46.010;8.946;2023-06-14T11:22:01;96788.44;;;25.92;55.71
19596;BME280;9945;46.010;8.946;2023-06-14T11:24:28;96794.88;;;25.91;55.13
19596;BME280;9945;46.010;8.946;2023-06-14T11:26:55;96788.91;;;25.84;56.15
19596;BME280;9945;46.010;8.946;2023-06-14T11:29:23;96794.38;;;25.94;56.83
19596;BME280;9945;46.010;8.946;2023-06-14T11:31:50;96793.13;;;26.07;56.34
19596;BME280;9945;46.010;8.946;2023-06-14T11:34:19;96791.88;;;26.19;56.99
19596;BME280;9945;46.010;8.946;2023-06-14T11:36:46;96788.38;;;26.19;55.04
19596;BME280;9945;46.010;8.946;2023-06-14T11:39:13;96786.31;;;26.26;56.31
19596;BME280;9945;46.010;8.946;2023-06-14T11:41:42;96779.16;;;25.78;56.14
19596;BME280;9945;46.010;8.946;2023-06-14T11:44:10;96781.84;;;25.78;56.67
19596;BME280;9945;46.010;8.946;2023-06-14T11:46:37;96777.84;;;25.75;57.72
19596;BME280;9945;46.010;8.946;2023-06-14T11:49:04;96785.56;;;26.04;56.44
19596;BME280;9945;46.010;8.946;2023-06-14T11:51:34;96775.69;;;26.09;56.54
19596;BME280;9945;46.010;8.946;2023-06-14T11:54:01;96771.09;;;26.42;57.29
19596;BME280;9945;46.010;8.946;2023-06-14T11:56:29;96779.47;;;26.50;55.15
19596;BME280;9945;46.010;8.946;2023-06-14T11:58:57;96780.22;;;26.35;54.04
19596;BME280;9945;46.010;8.946;2023-06-14T12:01:24;96772.41;;;26.39;55.19
19596;BME280;9945;46.010;8.946;2023-06-14T12:03:53;96774.16;;;26.18;55.65
19596;BME280;9945;46.010;8.946;2023-06-14T12:06:26;96776.59;;;26.25;53.83
19596;BME280;9945;46.010;8.946;2023-06-14T12:08:56;96761.69;;;26.39;54.11
19596;BME280;9945;46.010;8.946;2023-06-14T12:11:24;96766.81;;;26.46;54.88
19596;BME280;9945;46.010;8.946;2023-06-14T12:13:54;96763.91;;;26.52;53.77
19596;BME280;9945;46.010;8.946;2023-06-14T12:16:30;96764.84;;;26.31;53.09
19596;BME280;9945;46.010;8.946;2023-06-14T12:19:00;96763.41;;;26.18;56.16
19596;BME280;9945;46.010;8.946;2023-06-14T12:21:27;96762.25;;;26.46;53.03
19596;BME280;9945;46.010;8.946;2023-06-14T12:23:54;96757.31;;;25.91;56.90
19596;BME280;9945;46.010;8.946;2023-06-14T12:26:24;96750.47;;;26.10;55.99
19596;BME280;9945;46.010;8.946;2023-06-14T12:28:53;96748.69;;;25.89;57.29
19596;BME280;9945;46.010;8.946;2023-06-14T12:31:20;96747.53;;;25.80;57.24
19596;BME280;9945;46.010;8.946;2023-06-14T12:33:47;96747.28;;;25.54;59.49
19596;BME280;9945;46.010;8.946;2023-06-14T12:36:15;96750.41;;;25.68;57.02
19596;BME280;9945;46.010;8.946;2023-06-14T12:38:43;96752.28;;;25.68;57.32
19596;BME280;9945;46.010;8.946;2023-06-14T12:41:11;96751.25;;;25.74;57.87
19596;BME280;9945;46.010;8.946;2023-06-14T12:43:40;96751.75;;;25.71;58.73
19596;BME280;9945;46.010;8.946;2023-06-14T12:46:07;96744.69;;;25.91;57.07
19596;BME280;9945;46.010;8.946;2023-06-14T12:48:34;96744.22;;;25.99;57.60
19596;BME280;9945;46.010;8.946;2023-06-14T12:51:01;96748.09;;;25.82;57.79
19596;BME280;9945;46.010;8.946;2023-06-14T12:53:27;96736.38;;;25.93;57.41
19596;BME280;9945;46.010;8.946;2023-06-14T12:55:54;96750.00;;;25.86;57.86
19596;BME280;9945;46.010;8.946;2023-06-14T12:58:21;96746.72;;;25.79;57.61
19596;BME280;9945;46.010;8.946;2023-06-14T13:00:50;96745.78;;;25.95;58.00
19596;BME280;9945;46.010;8.946;2023-06-14T13:03:17;96737.44;;;25.92;56.38
19596;BME280;9945;46.010;8.946;2023-06-14T13:05:44;96743.19;;;25.74;58.96
19596;BME280;9945;46.010;8.946;2023-06-14T13:08:11;96745.97;;;25.30;59.06
19596;BME280;9945;46.010;8.946;2023-06-14T13:10:38;96740.47;;;25.42;58.14